Other Surface Observations
Issued by NWS Great Falls, MT

Home | Current Version | Previous Version | Text Only | Print | Product List | Glossary On
Versions: 1 2 3 4 5 6 7 8 9 10 11 12 13 14 15 16 17 18 19 20 21 22 23 24 25 26 27 28 29 30 31 32 33 34 35 36 37 38 39 40 41 42 43 44 45 46 47 48 49 50
589
SXUS55 KTFX 260129
OSOTFX
AREA AWOS OBSERVATIONS
NATIONAL WEATHER SERVICE GREAT FALLS MT
0629 PM MST SAT FEB 25 2017

METAR KPWD 260130Z AUTO 33003KT 8SM M12/M13 A2968 RMK PLENTYWOOD
METAR KPO1 260130Z AUTO 07004KT 10SM M11/M13 A2972 RMK POPLAR
METAR K1S3 260130Z AUTO 00000KT 10SM M02/M11 A2968 RMK FORSYTH
METAR KS71 260130Z AUTO 00000KT 10SM M02/M08 A2963 RMK CHINOOK
METAR K79S 260130Z AUTO 36004KT 10SM M01/M12 A2965 RMK FORT BENTON
METAR K38S 260130Z AUTO 29008KT 10SM M04/M16 A2980 RMK DEER LODGE
METAR K3U3 260130Z AUTO 24010KT 10SM M06/M16 A2978 RMK ANACONDA
METAR K6S5 260130Z AUTO 16008KT 10SM M02/M12 RMK HAMILTON
METAR KS59 260130Z AUTO 07003KT 10SM M02/M09 A2983 RMK LIBBY
METAR K88M 260130Z AUTO 08005KT 10SM M02/M08 A2983 RMK EUREKA



USA.gov is the U.S. government's official web portal to all federal, state and local government web resources and services.